sensor_id;sensor_type;location;lat;lon;timestamp;pressure;altitude;pressure_sealevel;temperature;humidity
5952;BME280;3001;42.622;23.194;2023-01-05T00:01:28;92025.13;;;9.24;93.72
5952;BME280;3001;42.622;23.194;2023-01-05T00:03:55;92026.75;;;9.15;94.77
5952;BME280;3001;42.622;23.194;2023-01-05T00:06:22;92035.84;;;9.13;94.24
5952;BME280;3001;42.622;23.194;2023-01-05T00:08:49;92036.72;;;9.03;95.29
5952;BME280;3001;42.622;23.194;2023-01-05T00:11:17;92030.69;;;9.08;94.58
5952;BME280;3001;42.622;23.194;2023-01-05T00:14:11;92030.97;;;9.06;93.96
5952;BME280;3001;42.622;23.194;2023-01-05T00:16:57;92023.78;;;8.98;95.15
5952;BME280;3001;42.622;23.194;2023-01-05T00:19:41;92014.00;;;8.90;95.75
5952;BME280;3001;42.622;23.194;2023-01-05T00:22:27;92012.16;;;8.96;94.96
5952;BME280;3001;42.622;23.194;2023-01-05T00:24:57;92007.34;;;8.84;95.28
5952;BME280;3001;42.622;23.194;2023-01-05T00:27:24;92007.22;;;8.99;94.84
5952;BME280;3001;42.622;23.194;2023-01-05T00:29:51;92004.44;;;8.91;95.37
5952;BME280;3001;42.622;23.194;2023-01-05T00:32:19;92004.56;;;9.04;94.30
5952;BME280;3001;42.622;23.194;2023-01-05T00:34:46;91997.97;;;8.88;94.53
5952;BME280;3001;42.622;23.194;2023-01-05T00:37:13;91998.75;;;8.89;94.54
5952;BME280;3001;42.622;23.194;2023-01-05T00:39:40;92001.19;;;9.04;93.91
5952;BME280;3001;42.622;23.194;2023-01-05T00:42:07;91996.00;;;9.04;94.08
5952;BME280;3001;42.622;23.194;2023-01-05T00:44:33;91996.84;;;8.99;94.82
5952;BME280;3001;42.622;23.194;2023-01-05T00:47:00;91989.53;;;9.06;94.46
5952;BME280;3001;42.622;23.194;2023-01-05T00:49:28;91993.72;;;8.97;95.26
5952;BME280;3001;42.622;23.194;2023-01-05T00:51:55;91989.34;;;8.98;94.82
5952;BME280;3001;42.622;23.194;2023-01-05T00:54:21;91993.88;;;8.82;95.54
5952;BME280;3001;42.622;23.194;2023-01-05T00:56:48;91993.25;;;8.95;95.68
5952;BME280;3001;42.622;23.194;2023-01-05T00:59:15;91989.78;;;9.05;94.80
5952;BME280;3001;42.622;23.194;2023-01-05T01:01:44;91992.66;;;9.03;95.17
5952;BME280;3001;42.622;23.194;2023-01-05T01:04:11;91994.34;;;8.89;96.14
5952;BME280;3001;42.622;23.194;2023-01-05T01:06:39;91994.34;;;8.89;96.28
5952;BME280;3001;42.622;23.194;2023-01-05T01:09:06;91993.06;;;8.87;96.24
5952;BME280;3001;42.622;23.194;2023-01-05T01:11:33;91995.97;;;8.80;97.14
5952;BME280;3001;42.622;23.194;2023-01-05T01:13:59;91991.28;;;8.82;96.80
5952;BME280;3001;42.622;23.194;2023-01-05T01:16:26;91987.72;;;8.78;97.03
5952;BME280;3001;42.622;23.194;2023-01-05T01:18:53;91988.22;;;8.80;97.49
5952;BME280;3001;42.622;23.194;2023-01-05T01:21:20;91991.06;;;8.79;97.14
5952;BME280;3001;42.622;23.194;2023-01-05T01:23:48;91986.56;;;8.89;97.08
5952;BME280;3001;42.622;23.194;2023-01-05T01:26:15;91977.06;;;9.08;95.21
5952;BME280;3001;42.622;23.194;2023-01-05T01:28:41;91983.66;;;8.96;95.85
5952;BME280;3001;42.622;23.194;2023-01-05T01:31:08;91980.06;;;8.92;95.53
5952;BME280;3001;42.622;23.194;2023-01-05T01:33:37;91979.00;;;8.64;97.48
5952;BME280;3001;42.622;23.194;2023-01-05T01:36:06;91963.34;;;8.79;97.42
5952;BME280;3001;42.622;23.194;2023-01-05T01:38:33;91960.03;;;8.74;96.80
5952;BME280;3001;42.622;23.194;2023-01-05T01:41:01;91956.63;;;8.78;97.29
5952;BME280;3001;42.622;23.194;2023-01-05T01:43:43;91953.44;;;8.86;96.78
5952;BME280;3001;42.622;23.194;2023-01-05T01:46:10;91947.63;;;8.99;96.40
5952;BME280;3001;42.622;23.194;2023-01-05T01:48:38;91941.91;;;8.97;95.59
5952;BME280;3001;42.622;23.194;2023-01-05T01:51:10;91940.44;;;8.91;95.93
5952;BME280;3001;42.622;23.194;2023-01-05T01:53:42;91932.16;;;8.89;96.27
5952;BME280;3001;42.622;23.194;2023-01-05T01:56:15;91928.09;;;8.83;95.92
5952;BME280;3001;42.622;23.194;2023-01-05T01:58:44;91922.66;;;8.80;96.17
5952;BME280;3001;42.622;23.194;2023-01-05T02:01:11;91920.88;;;8.75;96.56
5952;BME280;3001;42.622;23.194;2023-01-05T02:03:38;91919.09;;;8.76;96.53
5952;BME280;3001;42.622;23.194;2023-01-05T02:06:06;91914.41;;;8.78;96.72
5952;BME280;3001;42.622;23.194;2023-01-05T02:08:33;91915.50;;;8.72;96.90
5952;BME280;3001;42.622;23.194;2023-01-05T02:11:14;91910.34;;;8.67;97.34
5952;BME280;3001;42.622;23.194;2023-01-05T02:13:53;91903.78;;;8.79;97.26
5952;BME280;3001;42.622;23.194;2023-01-05T02:16:31;91904.78;;;8.83;96.82
5952;BME280;3001;42.622;23.194;2023-01-05T02:19:35;91895.16;;;8.84;96.45
5952;BME280;3001;42.622;23.194;2023-01-05T02:22:25;91885.66;;;8.79;96.13
5952;BME280;3001;42.622;23.194;2023-01-05T02:25:11;91889.88;;;8.70;97.18
5952;BME280;3001;42.622;23.194;2023-01-05T02:27:53;91885.50;;;8.66;97.43
5952;BME280;3001;42.622;23.194;2023-01-05T02:30:47;91886.66;;;8.55;97.80
5952;BME280;3001;42.622;23.194;2023-01-05T02:33:31;91885.22;;;8.67;97.61
5952;BME280;3001;42.622;23.194;2023-01-05T02:36:11;91867.44;;;8.61;97.66
5952;BME280;3001;42.622;23.194;2023-01-05T02:38:44;91889.41;;;8.63;97.69
5952;BME280;3001;42.622;23.194;2023-01-05T02:41:15;91891.03;;;8.59;97.93
5952;BME280;3001;42.622;23.194;2023-01-05T02:43:45;91891.03;;;8.54;97.85
5952;BME280;3001;42.622;23.194;2023-01-05T02:46:13;91898.31;;;8.52;97.72
5952;BME280;3001;42.622;23.194;2023-01-05T02:48:41;91897.56;;;8.52;97.44
5952;BME280;3001;42.622;23.194;2023-01-05T02:51:12;91901.31;;;8.36;99.36
5952;BME280;3001;42.622;23.194;2023-01-05T02:53:45;91893.78;;;8.40;99.37
5952;BME280;3001;42.622;23.194;2023-01-05T02:56:18;91882.41;;;8.36;98.75
5952;BME280;3001;42.622;23.194;2023-01-05T02:58:49;91878.53;;;8.38;99.00
5952;BME280;3001;42.622;23.194;2023-01-05T03:01:22;91880.84;;;8.40;98.86
5952;BME280;3001;42.622;23.194;2023-01-05T03:03:53;91871.75;;;8.42;98.79
5952;BME280;3001;42.622;23.194;2023-01-05T03:06:25;91868.41;;;8.42;98.36
5952;BME280;3001;42.622;23.194;2023-01-05T03:08:56;91866.81;;;8.46;99.02
5952;BME280;3001;42.622;23.194;2023-01-05T03:11:26;91857.06;;;8.33;99.24
5952;BME280;3001;42.622;23.194;2023-01-05T03:14:19;91849.56;;;8.36;99.01
5952;BME280;3001;42.622;23.194;2023-01-05T03:16:50;91850.84;;;8.39;99.04
5952;BME280;3001;42.622;23.194;2023-01-05T03:19:17;91850.00;;;8.43;97.30
5952;BME280;3001;42.622;23.194;2023-01-05T03:22:08;91840.75;;;8.37;97.41
5952;BME280;3001;42.622;23.194;2023-01-05T03:24:54;91829.06;;;8.40;97.48
5952;BME280;3001;42.622;23.194;2023-01-05T03:27:39;91822.06;;;8.40;97.66
5952;BME280;3001;42.622;23.194;2023-01-05T03:30:30;91819.72;;;8.44;98.19
5952;BME280;3001;42.622;23.194;2023-01-05T03:33:24;91823.34;;;8.43;97.86
5952;BME280;3001;42.622;23.194;2023-01-05T03:36:15;91823.13;;;8.39;97.95
5952;BME280;3001;42.622;23.194;2023-01-05T03:38:45;91820.22;;;8.46;97.57
5952;BME280;3001;42.622;23.194;2023-01-05T03:41:14;91813.44;;;8.50;97.34
5952;BME280;3001;42.622;23.194;2023-01-05T03:43:43;91810.97;;;8.40;97.67
5952;BME280;3001;42.622;23.194;2023-01-05T03:46:15;91812.94;;;8.48;97.27
5952;BME280;3001;42.622;23.194;2023-01-05T03:48:44;91814.47;;;8.49;96.98
5952;BME280;3001;42.622;23.194;2023-01-05T03:51:12;91824.22;;;8.56;96.68
5952;BME280;3001;42.622;23.194;2023-01-05T03:53:40;91830.94;;;8.57;96.21
5952;BME280;3001;42.622;23.194;2023-01-05T03:56:07;91818.78;;;8.58;95.87
5952;BME280;3001;42.622;23.194;2023-01-05T03:58:34;91823.53;;;8.51;96.48
5952;BME280;3001;42.622;23.194;2023-01-05T04:01:01;91820.44;;;8.49;96.59
5952;BME280;3001;42.622;23.194;2023-01-05T04:03:28;91810.13;;;8.44;96.96
5952;BME280;3001;42.622;23.194;2023-01-05T04:05:56;91808.69;;;8.33;97.11
5952;BME280;3001;42.622;23.194;2023-01-05T04:08:23;91804.56;;;8.32;96.88
5952;BME280;3001;42.622;23.194;2023-01-05T04:10:50;91805.38;;;8.28;96.29
5952;BME280;3001;42.622;23.194;2023-01-05T04:13:17;91792.00;;;8.44;95.27
5952;BME280;3001;42.622;23.194;2023-01-05T04:15:44;91806.09;;;8.56;95.09
5952;BME280;3001;42.622;23.194;2023-01-05T04:18:11;91808.38;;;8.40;95.52
5952;BME280;3001;42.622;23.194;2023-01-05T04:20:37;91802.09;;;8.46;95.26
5952;BME280;3001;42.622;23.194;2023-01-05T04:23:06;91800.78;;;8.48;94.79
5952;BME280;3001;42.622;23.194;2023-01-05T04:25:32;91793.16;;;8.56;93.97
5952;BME280;3001;42.622;23.194;2023-01-05T04:27:59;91798.00;;;8.63;92.96
5952;BME280;3001;42.622;23.194;2023-01-05T04:30:26;91797.59;;;8.79;91.84
5952;BME280;3001;42.622;23.194;2023-01-05T04:32:53;91798.56;;;8.83;91.90
5952;BME280;3001;42.622;23.194;2023-01-05T04:35:19;91796.03;;;8.78;91.40
5952;BME280;3001;42.622;23.194;2023-01-05T04:37:46;91800.50;;;8.73;91.40
5952;BME280;3001;42.622;23.194;2023-01-05T04:40:14;91793.66;;;8.82;90.06
5952;BME280;3001;42.622;23.194;2023-01-05T04:42:41;91795.00;;;8.79;89.38
5952;BME280;3001;42.622;23.194;2023-01-05T04:45:08;91794.38;;;8.87;88.76
5952;BME280;3001;42.622;23.194;2023-01-05T04:47:35;91797.28;;;8.81;89.34
5952;BME280;3001;42.622;23.194;2023-01-05T04:50:02;91791.50;;;8.89;88.31
5952;BME280;3001;42.622;23.194;2023-01-05T04:52:29;91800.25;;;8.93;88.45
5952;BME280;3001;42.622;23.194;2023-01-05T04:54:55;91805.00;;;8.86;87.80
5952;BME280;3001;42.622;23.194;2023-01-05T04:57:23;91803.91;;;8.92;88.13
5952;BME280;3001;42.622;23.194;2023-01-05T04:59:50;91797.72;;;8.88;87.75
5952;BME280;3001;42.622;23.194;2023-01-05T05:02:17;91808.28;;;9.15;87.29
5952;BME280;3001;42.622;23.194;2023-01-05T05:04:44;91814.03;;;9.12;87.01
5952;BME280;3001;42.622;23.194;2023-01-05T05:07:10;91810.72;;;9.06;86.71
5952;BME280;3001;42.622;23.194;2023-01-05T05:09:37;91816.88;;;9.10;86.72
5952;BME280;3001;42.622;23.194;2023-01-05T05:12:04;91812.75;;;9.09;87.27
5952;BME280;3001;42.622;23.194;2023-01-05T05:14:32;91811.59;;;9.20;86.67
5952;BME280;3001;42.622;23.194;2023-01-05T05:16:59;91812.63;;;9.19;87.34
5952;BME280;3001;42.622;23.194;2023-01-05T05:19:26;91818.47;;;9.30;86.84
5952;BME280;3001;42.622;23.194;2023-01-05T05:21:52;91819.88;;;9.17;87.49
5952;BME280;3001;42.622;23.194;2023-01-05T05:24:19;91823.19;;;9.23;86.98
5952;BME280;3001;42.622;23.194;2023-01-05T05:26:46;91820.03;;;9.26;86.78
5952;BME280;3001;42.622;23.194;2023-01-05T05:29:12;91809.41;;;9.27;86.96
5952;BME280;3001;42.622;23.194;2023-01-05T05:31:40;91817.19;;;9.27;87.08
5952;BME280;3001;42.622;23.194;2023-01-05T05:34:07;91815.66;;;9.26;87.14
5952;BME280;3001;42.622;23.194;2023-01-05T05:36:34;91810.59;;;9.35;87.33
5952;BME280;3001;42.622;23.194;2023-01-05T05:39:02;91815.50;;;9.36;86.34
5952;BME280;3001;42.622;23.194;2023-01-05T05:41:29;91806.97;;;9.36;86.69
5952;BME280;3001;42.622;23.194;2023-01-05T05:43:55;91805.50;;;9.30;86.77
5952;BME280;3001;42.622;23.194;2023-01-05T05:46:25;91808.13;;;9.25;86.46
5952;BME280;3001;42.622;23.194;2023-01-05T05:48:53;91798.22;;;9.32;86.40
5952;BME280;3001;42.622;23.194;2023-01-05T05:51:20;91797.16;;;9.33;86.13
5952;BME280;3001;42.622;23.194;2023-01-05T05:53:47;91794.00;;;9.36;85.87
5952;BME280;3001;42.622;23.194;2023-01-05T05:56:14;91802.81;;;9.35;85.82
5952;BME280;3001;42.622;23.194;2023-01-05T05:58:41;91795.41;;;9.28;85.63
5952;BME280;3001;42.622;23.194;2023-01-05T06:01:08;91789.09;;;9.34;85.61
5952;BME280;3001;42.622;23.194;2023-01-05T06:03:35;91790.28;;;9.23;85.49
5952;BME280;3001;42.622;23.194;2023-01-05T06:06:03;91775.50;;;9.24;85.49
5952;BME280;3001;42.622;23.194;2023-01-05T06:08:30;91776.28;;;9.24;85.77
5952;BME280;3001;42.622;23.194;2023-01-05T06:10:57;91783.13;;;9.15;85.70
5952;BME280;3001;42.622;23.194;2023-01-05T06:13:24;91775.72;;;9.09;85.65
5952;BME280;3001;42.622;23.194;2023-01-05T06:15:50;91780.91;;;9.27;84.88
5952;BME280;3001;42.622;23.194;2023-01-05T06:18:17;91774.94;;;9.27;84.64
5952;BME280;3001;42.622;23.194;2023-01-05T06:20:44;91773.53;;;9.16;84.91
5952;BME280;3001;42.622;23.194;2023-01-05T06:23:12;91764.38;;;9.23;84.66
5952;BME280;3001;42.622;23.194;2023-01-05T06:25:39;91771.09;;;9.24;84.43
5952;BME280;3001;42.622;23.194;2023-01-05T06:28:06;91762.59;;;9.19;84.86
5952;BME280;3001;42.622;23.194;2023-01-05T06:30:33;91766.97;;;9.23;83.94
5952;BME280;3001;42.622;23.194;2023-01-05T06:32:59;91772.41;;;9.03;84.18
5952;BME280;3001;42.622;23.194;2023-01-05T06:35:26;91762.88;;;8.99;84.94
5952;BME280;3001;42.622;23.194;2023-01-05T06:37:53;91773.91;;;8.86;85.59
5952;BME280;3001;42.622;23.194;2023-01-05T06:40:21;91759.50;;;8.98;85.50
5952;BME280;3001;42.622;23.194;2023-01-05T06:42:48;91769.66;;;8.95;85.59
5952;BME280;3001;42.622;23.194;2023-01-05T06:45:15;91759.72;;;9.02;85.18
5952;BME280;3001;42.622;23.194;2023-01-05T06:47:42;91762.03;;;9.03;85.07
5952;BME280;3001;42.622;23.194;2023-01-05T06:50:09;91759.03;;;9.15;84.67
5952;BME280;3001;42.622;23.194;2023-01-05T06:52:36;91762.19;;;9.12;85.27
5952;BME280;3001;42.622;23.194;2023-01-05T06:55:05;91761.19;;;9.08;84.90
5952;BME280;3001;42.622;23.194;2023-01-05T06:57:33;91759.66;;;9.07;83.57
5952;BME280;3001;42.622;23.194;2023-01-05T07:00:03;91762.66;;;8.95;84.12
5952;BME280;3001;42.622;23.194;2023-01-05T07:02:30;91770.91;;;8.97;84.17
5952;BME280;3001;42.622;23.194;2023-01-05T07:04:57;91751.03;;;8.93;84.87
5952;BME280;3001;42.622;23.194;2023-01-05T07:07:24;91764.19;;;8.96;84.50
5952;BME280;3001;42.622;23.194;2023-01-05T07:09:51;91757.47;;;8.95;84.39
5952;BME280;3001;42.622;23.194;2023-01-05T07:12:18;91756.50;;;8.91;84.45
5952;BME280;3001;42.622;23.194;2023-01-05T07:14:46;91757.03;;;8.88;84.67
5952;BME280;3001;42.622;23.194;2023-01-05T07:17:12;91756.78;;;8.90;85.08
5952;BME280;3001;42.622;23.194;2023-01-05T07:19:39;91766.44;;;8.84;84.66
5952;BME280;3001;42.622;23.194;2023-01-05T07:22:06;91762.06;;;8.80;85.10
5952;BME280;3001;42.622;23.194;2023-01-05T07:24:33;91754.06;;;8.76;85.55
5952;BME280;3001;42.622;23.194;2023-01-05T07:27:00;91761.44;;;8.88;84.94
5952;BME280;3001;42.622;23.194;2023-01-05T07:29:27;91757.19;;;8.97;84.46
5952;BME280;3001;42.622;23.194;2023-01-05T07:31:55;91758.19;;;9.01;84.65
5952;BME280;3001;42.622;23.194;2023-01-05T07:34:22;91746.13;;;8.91;84.55
5952;BME280;3001;42.622;23.194;2023-01-05T07:36:49;91745.28;;;9.14;84.06
5952;BME280;3001;42.622;23.194;2023-01-05T07:39:16;91747.06;;;9.19;83.79
5952;BME280;3001;42.622;23.194;2023-01-05T07:41:44;91730.53;;;9.15;83.73
5952;BME280;3001;42.622;23.194;2023-01-05T07:44:11;91730.66;;;9.23;83.47
5952;BME280;3001;42.622;23.194;2023-01-05T07:46:37;91727.22;;;9.28;82.99
5952;BME280;3001;42.622;23.194;2023-01-05T07:49:05;91721.28;;;9.27;83.01
5952;BME280;3001;42.622;23.194;2023-01-05T07:51:32;91717.06;;;9.31;83.22
5952;BME280;3001;42.622;23.194;2023-01-05T07:53:59;91714.25;;;9.28;83.24
5952;BME280;3001;42.622;23.194;2023-01-05T07:56:26;91705.81;;;9.22;83.76
5952;BME280;3001;42.622;23.194;2023-01-05T07:58:53;91716.94;;;9.23;83.53
5952;BME280;3001;42.622;23.194;2023-01-05T08:01:20;91714.34;;;9.23;83.53
5952;BME280;3001;42.622;23.194;2023-01-05T08:03:46;91720.31;;;9.23;83.14
5952;BME280;3001;42.622;23.194;2023-01-05T08:06:17;91717.34;;;9.11;83.95
5952;BME280;3001;42.622;23.194;2023-01-05T08:08:44;91711.19;;;9.26;84.11
5952;BME280;3001;42.622;23.194;2023-01-05T08:11:13;91715.53;;;9.30;83.66
5952;BME280;3001;42.622;23.194;2023-01-05T08:13:41;91716.38;;;9.07;84.71
5952;BME280;3001;42.622;23.194;2023-01-05T08:16:28;91701.41;;;9.04;84.86
5952;BME280;3001;42.622;23.194;2023-01-05T08:18:55;91709.25;;;8.99;85.15
5952;BME280;3001;42.622;23.194;2023-01-05T08:21:23;91715.31;;;9.08;84.69
5952;BME280;3001;42.622;23.194;2023-01-05T08:23:50;91728.53;;;9.07;84.72
5952;BME280;3001;42.622;23.194;2023-01-05T08:26:20;91722.25;;;8.94;85.06
5952;BME280;3001;42.622;23.194;2023-01-05T08:28:47;91725.97;;;9.07;85.01
5952;BME280;3001;42.622;23.194;2023-01-05T08:31:17;91733.88;;;9.15;84.79
5952;BME280;3001;42.622;23.194;2023-01-05T08:33:44;91736.69;;;9.19;83.88
5952;BME280;3001;42.622;23.194;2023-01-05T08:36:12;91733.19;;;9.10;83.91
5952;BME280;3001;42.622;23.194;2023-01-05T08:38:41;91728.22;;;9.13;84.04
5952;BME280;3001;42.622;23.194;2023-01-05T08:41:15;91722.91;;;9.23;83.69
5952;BME280;3001;42.622;23.194;2023-01-05T08:43:41;91724.63;;;9.28;84.13
5952;BME280;3001;42.622;23.194;2023-01-05T08:46:08;91718.13;;;9.30;83.88
5952;BME280;3001;42.622;23.194;2023-01-05T08:48:35;91723.03;;;9.32;83.72
5952;BME280;3001;42.622;23.194;2023-01-05T08:51:02;91717.91;;;9.27;83.81
5952;BME280;3001;42.622;23.194;2023-01-05T08:53:31;91717.22;;;9.21;84.04
5952;BME280;3001;42.622;23.194;2023-01-05T08:55:59;91709.63;;;9.25;83.89
5952;BME280;3001;42.622;23.194;2023-01-05T08:58:26;91711.22;;;9.39;83.51
5952;BME280;3001;42.622;23.194;2023-01-05T09:00:53;91698.34;;;9.53;82.83
5952;BME280;3001;42.622;23.194;2023-01-05T09:03:20;91698.34;;;9.53;82.16
5952;BME280;3001;42.622;23.194;2023-01-05T09:05:46;91700.75;;;9.63;82.08
5952;BME280;3001;42.622;23.194;2023-01-05T09:08:13;91701.97;;;9.84;81.82
5952;BME280;3001;42.622;23.194;2023-01-05T09:10:40;91692.28;;;9.89;80.75
5952;BME280;3001;42.622;23.194;2023-01-05T09:13:08;91686.22;;;9.94;80.38
5952;BME280;3001;42.622;23.194;2023-01-05T09:15:36;91687.81;;;10.08;80.03
5952;BME280;3001;42.622;23.194;2023-01-05T09:18:02;91674.25;;;10.11;79.81
5952;BME280;3001;42.622;23.194;2023-01-05T09:20:29;91662.22;;;10.28;79.23
5952;BME280;3001;42.622;23.194;2023-01-05T09:22:56;91662.81;;;10.52;77.81
5952;BME280;3001;42.622;23.194;2023-01-05T09:25:22;91652.91;;;10.54;77.66
5952;BME280;3001;42.622;23.194;2023-01-05T09:27:49;91645.56;;;10.70;77.50
5952;BME280;3001;42.622;23.194;2023-01-05T09:30:19;91634.19;;;10.79;76.91
5952;BME280;3001;42.622;23.194;2023-01-05T09:32:46;91633.56;;;10.96;76.56
5952;BME280;3001;42.622;23.194;2023-01-05T09:35:13;91617.44;;;11.07;75.63
5952;BME280;3001;42.622;23.194;2023-01-05T09:37:40;91618.56;;;11.15;75.77
5952;BME280;3001;42.622;23.194;2023-01-05T09:40:09;91618.63;;;11.23;74.86
5952;BME280;3001;42.622;23.194;2023-01-05T09:42:42;91620.22;;;11.33;74.68
5952;BME280;3001;42.622;23.194;2023-01-05T09:45:10;91609.00;;;11.46;73.67
5952;BME280;3001;42.622;23.194;2023-01-05T09:47:41;91599.81;;;11.48;73.55
5952;BME280;3001;42.622;23.194;2023-01-05T09:50:17;91596.69;;;11.60;73.24
5952;BME280;3001;42.622;23.194;2023-01-05T09:52:44;91592.09;;;11.57;72.19
5952;BME280;3001;42.622;23.194;2023-01-05T09:55:13;91586.00;;;11.61;73.24
5952;BME280;3001;42.622;23.194;2023-01-05T09:57:42;91573.91;;;11.65;73.15
5952;BME280;3001;42.622;23.194;2023-01-05T10:00:14;91575.16;;;11.68;73.86
5952;BME280;3001;42.622;23.194;2023-01-05T10:02:48;91570.50;;;11.87;72.46
5952;BME280;3001;42.622;23.194;2023-01-05T10:05:16;91577.28;;;12.04;71.49
5952;BME280;3001;42.622;23.194;2023-01-05T10:07:46;91577.94;;;12.18;70.98
5952;BME280;3001;42.622;23.194;2023-01-05T10:10:26;91575.69;;;12.25;71.31
5952;BME280;3001;42.622;23.194;2023-01-05T10:12:59;91573.22;;;12.29;70.95
5952;BME280;3001;42.622;23.194;2023-01-05T10:15:33;91582.31;;;12.40;70.39
5952;BME280;3001;42.622;23.194;2023-01-05T10:18:08;91556.38;;;12.26;69.47
5952;BME280;3001;42.622;23.194;2023-01-05T10:20:44;91570.94;;;12.44;69.12
5952;BME280;3001;42.622;23.194;2023-01-05T10:23:22;91575.25;;;12.40;69.56
5952;BME280;3001;42.622;23.194;2023-01-05T10:25:54;91558.88;;;12.48;69.03
5952;BME280;3001;42.622;23.194;2023-01-05T10:28:33;91570.50;;;12.42;70.20
5952;BME280;3001;42.622;23.194;2023-01-05T10:31:13;91568.25;;;12.58;69.21
5952;BME280;3001;42.622;23.194;2023-01-05T10:33:50;91557.00;;;12.40;69.47
5952;BME280;3001;42.622;23.194;2023-01-05T10:36:45;91558.88;;;12.65;69.01
5952;BME280;3001;42.622;23.194;2023-01-05T10:39:24;91559.81;;;12.52;69.17
5952;BME280;3001;42.622;23.194;2023-01-05T10:41:58;91552.31;;;12.76;68.91
5952;BME280;3001;42.622;23.194;2023-01-05T10:44:51;91553.84;;;12.86;69.05
5952;BME280;3001;42.622;23.194;2023-01-05T10:47:19;91550.63;;;13.14;68.36
5952;BME280;3001;42.622;23.194;2023-01-05T10:49:49;91542.03;;;13.22;68.00
5952;BME280;3001;42.622;23.194;2023-01-05T10:52:17;91541.38;;;13.34;66.98
5952;BME280;3001;42.622;23.194;2023-01-05T10:54:47;91528.94;;;13.39;67.42
5952;BME280;3001;42.622;23.194;2023-01-05T10:57:36;91537.63;;;13.60;66.60
5952;BME280;3001;42.622;23.194;2023-01-05T11:00:08;91537.13;;;13.75;65.73
5952;BME280;3001;42.622;23.194;2023-01-05T11:02:37;91537.91;;;13.67;65.73
5952;BME280;3001;42.622;23.194;2023-01-05T11:05:16;91529.56;;;13.82;65.69
5952;BME280;3001;42.622;23.194;2023-01-05T11:07:49;91525.56;;;13.93;65.60
5952;BME280;3001;42.622;23.194;2023-01-05T11:10:27;91528.28;;;13.96;63.47
5952;BME280;3001;42.622;23.194;2023-01-05T11:13:00;91529.91;;;14.09;61.71
5952;BME280;3001;42.622;23.194;2023-01-05T11:15:29;91529.28;;;14.21;61.05
5952;BME280;3001;42.622;23.194;2023-01-05T11:17:56;91522.72;;;14.35;60.15
5952;BME280;3001;42.622;23.194;2023-01-05T11:20:26;91518.22;;;14.44;61.27
5952;BME280;3001;42.622;23.194;2023-01-05T11:22:54;91515.28;;;14.46;61.60
5952;BME280;3001;42.622;23.194;2023-01-05T11:25:28;91510.13;;;14.58;61.89
5952;BME280;3001;42.622;23.194;2023-01-05T11:28:07;91519.88;;;14.49;58.98
5952;BME280;3001;42.622;23.194;2023-01-05T11:30:35;91511.34;;;14.81;59.06
5952;BME280;3001;42.622;23.194;2023-01-05T11:33:11;91502.22;;;14.87;61.00
5952;BME280;3001;42.622;23.194;2023-01-05T11:35:42;91501.84;;;14.76;60.57
5952;BME280;3001;42.622;23.194;2023-01-05T11:38:20;91521.03;;;14.60;58.36
5952;BME280;3001;42.622;23.194;2023-01-05T11:40:48;91510.84;;;14.46;57.79
5952;BME280;3001;42.622;23.194;2023-01-05T11:43:15;91512.94;;;14.53;57.26
5952;BME280;3001;42.622;23.194;2023-01-05T11:45:47;91511.66;;;14.59;59.37
5952;BME280;3001;42.622;23.194;2023-01-05T11:48:18;91501.78;;;14.64;58.59
5952;BME280;3001;42.622;23.194;2023-01-05T11:50:48;91501.09;;;14.76;58.97
5952;BME280;3001;42.622;23.194;2023-01-05T11:53:25;91506.69;;;14.86;57.56
5952;BME280;3001;42.622;23.194;2023-01-05T11:55:58;91499.09;;;14.93;56.79
5952;BME280;3001;42.622;23.194;2023-01-05T11:58:30;91504.47;;;15.09;56.31
5952;BME280;3001;42.622;23.194;2023-01-05T12:01:18;91511.75;;;15.24;56.25
5952;BME280;3001;42.622;23.194;2023-01-05T12:03:59;91507.38;;;15.28;54.64
5952;BME280;3001;42.622;23.194;2023-01-05T12:09:24;91502.16;;;15.28;57.31
5952;BME280;3001;42.622;23.194;2023-01-05T12:12:01;91497.94;;;15.35;56.54
5952;BME280;3001;42.622;23.194;2023-01-05T12:14:50;91497.31;;;15.38;56.39
5952;BME280;3001;42.622;23.194;2023-01-05T12:17:27;91502.44;;;15.47;56.38
5952;BME280;3001;42.622;23.194;2023-01-05T12:20:04;91499.69;;;15.31;55.50
5952;BME280;3001;42.622;23.194;2023-01-05T12:22:53;91485.44;;;15.20;55.63
5952;BME280;3001;42.622;23.194;2023-01-05T12:25:37;91487.31;;;15.20;55.66
5952;BME280;3001;42.622;23.194;2023-01-05T12:28:30;91488.78;;;15.09;56.61
5952;BME280;3001;42.622;23.194;2023-01-05T12:31:15;91477.16;;;14.86;55.69
5952;BME280;3001;42.622;23.194;2023-01-05T12:33:58;91467.47;;;14.86;56.45
5952;BME280;3001;42.622;23.194;2023-01-05T12:36:35;91456.44;;;14.81;56.34
5952;BME280;3001;42.622;23.194;2023-01-05T12:39:27;91453.88;;;14.72;55.57
5952;BME280;3001;42.622;23.194;2023-01-05T12:42:16;91442.31;;;14.61;56.76
5952;BME280;3001;42.622;23.194;2023-01-05T12:45:06;91431.53;;;14.42;57.78
5952;BME280;3001;42.622;23.194;2023-01-05T12:47:51;91435.75;;;14.35;58.39
5952;BME280;3001;42.622;23.194;2023-01-05T12:50:30;91437.31;;;14.48;57.43
5952;BME280;3001;42.622;23.194;2023-01-05T12:53:06;91434.47;;;14.41;57.74
5952;BME280;3001;42.622;23.194;2023-01-05T12:55:38;91433.81;;;14.44;56.95
5952;BME280;3001;42.622;23.194;2023-01-05T12:58:11;91451.22;;;14.40;57.71
5952;BME280;3001;42.622;23.194;2023-01-05T13:00:39;91461.34;;;14.21;57.74
5952;BME280;3001;42.622;23.194;2023-01-05T13:03:15;91458.28;;;14.19;58.02
5952;BME280;3001;42.622;23.194;2023-01-05T13:05:49;91459.38;;;14.18;57.88
5952;BME280;3001;42.622;23.194;2023-01-05T13:08:19;91458.94;;;14.07;58.88
5952;BME280;3001;42.622;23.194;2023-01-05T13:10:54;91448.00;;;14.14;59.92
5952;BME280;3001;42.622;23.194;2023-01-05T13:13:25;91440.38;;;14.29;58.83
5952;BME280;3001;42.622;23.194;2023-01-05T13:15:57;91447.00;;;14.27;59.53
5952;BME280;3001;42.622;23.194;2023-01-05T13:18:29;91442.88;;;14.46;59.28
5952;BME280;3001;42.622;23.194;2023-01-05T13:20:59;91448.03;;;14.55;59.65
5952;BME280;3001;42.622;23.194;2023-01-05T13:23:29;91447.53;;;14.61;59.55
5952;BME280;3001;42.622;23.194;2023-01-05T13:26:00;91445.72;;;14.74;59.56
5952;BME280;3001;42.622;23.194;2023-01-05T13:28:29;91453.69;;;14.77;57.58
5952;BME280;3001;42.622;23.194;2023-01-05T13:31:26;91459.03;;;14.81;56.50
5952;BME280;3001;42.622;23.194;2023-01-05T13:34:26;91464.13;;;14.77;55.99
5952;BME280;3001;42.622;23.194;2023-01-05T13:37:11;91470.47;;;14.76;56.27
5952;BME280;3001;42.622;23.194;2023-01-05T13:39:59;91458.72;;;14.82;56.22
5952;BME280;3001;42.622;23.194;2023-01-05T13:42:40;91460.78;;;14.77;56.63